sensor_id;sensor_type;location;lat;lon;timestamp;pressure;altitude;pressure_sealevel;temperature;humidity
21361;BME280;10839;43.206;23.550;2023-03-14T00:01:23;97288.31;;;7.31;53.50
21361;BME280;10839;43.206;23.550;2023-03-14T00:03:51;97293.03;;;7.21;54.39
21361;BME280;10839;43.206;23.550;2023-03-14T00:06:18;97301.91;;;7.14;54.15
21361;BME280;10839;43.206;23.550;2023-03-14T00:08:45;97297.38;;;7.14;54.27
21361;BME280;10839;43.206;23.550;2023-03-14T00:11:13;97299.09;;;6.99;54.96
21361;BME280;10839;43.206;23.550;2023-03-14T00:13:39;97295.09;;;6.95;55.18
21361;BME280;10839;43.206;23.550;2023-03-14T00:16:10;97287.72;;;7.05;54.80
21361;BME280;10839;43.206;23.550;2023-03-14T00:18:37;97270.69;;;6.98;54.33
21361;BME280;10839;43.206;23.550;2023-03-14T00:21:07;97276.03;;;6.90;54.41
21361;BME280;10839;43.206;23.550;2023-03-14T00:23:35;97267.31;;;6.96;54.08
21361;BME280;10839;43.206;23.550;2023-03-14T00:26:06;97273.03;;;6.93;54.81
21361;BME280;10839;43.206;23.550;2023-03-14T00:28:33;97267.50;;;6.87;54.78
21361;BME280;10839;43.206;23.550;2023-03-14T00:31:03;97257.13;;;7.00;54.77
21361;BME280;10839;43.206;23.550;2023-03-14T00:33:29;97249.97;;;6.76;55.61
21361;BME280;10839;43.206;23.550;2023-03-14T00:35:58;97245.97;;;6.80;55.57
21361;BME280;10839;43.206;23.550;2023-03-14T00:38:24;97245.25;;;6.94;54.80
21361;BME280;10839;43.206;23.550;2023-03-14T00:40:51;97248.63;;;6.72;55.64
21361;BME280;10839;43.206;23.550;2023-03-14T00:43:18;97253.50;;;6.69;55.91
21361;BME280;10839;43.206;23.550;2023-03-14T00:45:48;97256.50;;;6.74;55.56
21361;BME280;10839;43.206;23.550;2023-03-14T00:48:14;97259.97;;;6.82;55.62
21361;BME280;10839;43.206;23.550;2023-03-14T00:50:41;97246.31;;;6.61;56.17
21361;BME280;10839;43.206;23.550;2023-03-14T00:53:06;97246.28;;;6.77;55.30
21361;BME280;10839;43.206;23.550;2023-03-14T00:55:37;97235.63;;;6.61;55.71
21361;BME280;10839;43.206;23.550;2023-03-14T00:58:03;97240.28;;;6.43;56.20
21361;BME280;10839;43.206;23.550;2023-03-14T01:00:30;97236.94;;;6.33;56.69
21361;BME280;10839;43.206;23.550;2023-03-14T01:02:57;97229.09;;;6.47;54.93
21361;BME280;10839;43.206;23.550;2023-03-14T01:05:23;97228.28;;;6.47;55.99
21361;BME280;10839;43.206;23.550;2023-03-14T01:07:50;97228.25;;;6.39;57.27
21361;BME280;10839;43.206;23.550;2023-03-14T01:10:16;97211.06;;;6.41;56.64
21361;BME280;10839;43.206;23.550;2023-03-14T01:12:42;97203.88;;;6.26;57.23
21361;BME280;10839;43.206;23.550;2023-03-14T01:15:08;97210.91;;;6.27;56.30
21361;BME280;10839;43.206;23.550;2023-03-14T01:17:35;97199.22;;;6.20;55.60
21361;BME280;10839;43.206;23.550;2023-03-14T01:20:04;97195.19;;;5.84;56.66
21361;BME280;10839;43.206;23.550;2023-03-14T01:22:31;97188.69;;;6.10;55.84
21361;BME280;10839;43.206;23.550;2023-03-14T01:24:57;97199.88;;;6.14;55.54
21361;BME280;10839;43.206;23.550;2023-03-14T01:27:23;97195.88;;;6.02;55.71
21361;BME280;10839;43.206;23.550;2023-03-14T01:29:49;97189.84;;;5.92;56.01
21361;BME280;10839;43.206;23.550;2023-03-14T01:32:15;97186.50;;;6.14;55.86
21361;BME280;10839;43.206;23.550;2023-03-14T01:34:41;97189.22;;;6.22;55.50
21361;BME280;10839;43.206;23.550;2023-03-14T01:37:07;97188.53;;;6.20;55.35
21361;BME280;10839;43.206;23.550;2023-03-14T01:39:35;97184.50;;;6.08;56.39
21361;BME280;10839;43.206;23.550;2023-03-14T01:42:02;97167.81;;;6.14;55.54
21361;BME280;10839;43.206;23.550;2023-03-14T01:44:27;97171.00;;;5.93;56.17
21361;BME280;10839;43.206;23.550;2023-03-14T01:46:53;97172.19;;;6.07;55.08
21361;BME280;10839;43.206;23.550;2023-03-14T01:52:06;97161.75;;;5.64;56.61
21361;BME280;10839;43.206;23.550;2023-03-14T01:54:46;97161.59;;;5.81;55.83
21361;BME280;10839;43.206;23.550;2023-03-14T01:57:17;97154.44;;;5.74;56.01
21361;BME280;10839;43.206;23.550;2023-03-14T01:59:52;97154.03;;;5.61;56.87
21361;BME280;10839;43.206;23.550;2023-03-14T02:02:20;97144.72;;;5.65;56.36
21361;BME280;10839;43.206;23.550;2023-03-14T02:04:48;97138.41;;;5.74;56.55
21361;BME280;10839;43.206;23.550;2023-03-14T02:07:20;97146.91;;;5.69;55.91
21361;BME280;10839;43.206;23.550;2023-03-14T02:10:12;97140.06;;;5.75;55.00
21361;BME280;10839;43.206;23.550;2023-03-14T02:12:40;97141.41;;;5.79;54.64
21361;BME280;10839;43.206;23.550;2023-03-14T02:15:12;97151.09;;;5.80;54.22
21361;BME280;10839;43.206;23.550;2023-03-14T02:17:59;97148.78;;;5.93;54.14
21361;BME280;10839;43.206;23.550;2023-03-14T02:23:47;97153.78;;;5.96;53.66
21361;BME280;10839;43.206;23.550;2023-03-14T02:29:21;97160.31;;;5.93;53.41
21361;BME280;10839;43.206;23.550;2023-03-14T02:31:48;97164.63;;;5.86;53.73
21361;BME280;10839;43.206;23.550;2023-03-14T02:34:16;97160.31;;;5.85;53.85
21361;BME280;10839;43.206;23.550;2023-03-14T02:36:43;97163.41;;;5.73;54.67
21361;BME280;10839;43.206;23.550;2023-03-14T02:39:19;97166.25;;;5.79;54.62
21361;BME280;10839;43.206;23.550;2023-03-14T02:41:48;97162.44;;;5.74;54.44
21361;BME280;10839;43.206;23.550;2023-03-14T02:44:16;97163.91;;;5.60;54.53
21361;BME280;10839;43.206;23.550;2023-03-14T02:46:42;97163.06;;;5.60;54.67
21361;BME280;10839;43.206;23.550;2023-03-14T02:49:14;97158.75;;;5.67;54.75
21361;BME280;10839;43.206;23.550;2023-03-14T02:51:43;97161.94;;;5.78;54.11
21361;BME280;10839;43.206;23.550;2023-03-14T02:54:10;97168.94;;;5.79;54.09
21361;BME280;10839;43.206;23.550;2023-03-14T02:56:37;97176.94;;;5.79;54.63
21361;BME280;10839;43.206;23.550;2023-03-14T02:59:04;97166.00;;;5.90;53.90
21361;BME280;10839;43.206;23.550;2023-03-14T03:01:43;97169.13;;;5.86;54.20
21361;BME280;10839;43.206;23.550;2023-03-14T03:04:09;97178.16;;;5.93;54.54
21361;BME280;10839;43.206;23.550;2023-03-14T03:06:35;97170.81;;;6.03;52.90
21361;BME280;10839;43.206;23.550;2023-03-14T03:09:01;97174.97;;;5.89;53.97
21361;BME280;10839;43.206;23.550;2023-03-14T03:11:27;97169.97;;;5.86;53.27
21361;BME280;10839;43.206;23.550;2023-03-14T03:13:54;97168.16;;;5.87;53.95
21361;BME280;10839;43.206;23.550;2023-03-14T03:16:20;97164.19;;;5.41;54.86
21361;BME280;10839;43.206;23.550;2023-03-14T03:18:46;97158.34;;;5.38;55.11
21361;BME280;10839;43.206;23.550;2023-03-14T03:21:12;97155.88;;;5.52;54.50
21361;BME280;10839;43.206;23.550;2023-03-14T03:23:39;97148.47;;;5.22;55.10
21361;BME280;10839;43.206;23.550;2023-03-14T03:26:05;97158.69;;;5.43;54.49
21361;BME280;10839;43.206;23.550;2023-03-14T03:28:31;97158.25;;;5.63;54.15
21361;BME280;10839;43.206;23.550;2023-03-14T03:31:06;97145.69;;;5.40;53.92
21361;BME280;10839;43.206;23.550;2023-03-14T03:33:33;97158.91;;;5.57;53.85
21361;BME280;10839;43.206;23.550;2023-03-14T03:36:00;97147.22;;;5.50;54.23
21361;BME280;10839;43.206;23.550;2023-03-14T03:38:31;97150.75;;;5.67;53.71
21361;BME280;10839;43.206;23.550;2023-03-14T03:41:05;97146.72;;;5.55;53.99
21361;BME280;10839;43.206;23.550;2023-03-14T03:43:32;97142.72;;;5.59;53.77
21361;BME280;10839;43.206;23.550;2023-03-14T03:46:03;97146.38;;;5.58;53.56
21361;BME280;10839;43.206;23.550;2023-03-14T03:48:29;97146.88;;;5.53;53.63
21361;BME280;10839;43.206;23.550;2023-03-14T03:50:55;97145.06;;;5.62;53.86
21361;BME280;10839;43.206;23.550;2023-03-14T03:53:22;97145.69;;;5.56;53.43
21361;BME280;10839;43.206;23.550;2023-03-14T03:55:48;97142.69;;;5.51;54.24
21361;BME280;10839;43.206;23.550;2023-03-14T03:58:14;97140.56;;;5.62;53.40
21361;BME280;10839;43.206;23.550;2023-03-14T04:00:41;97147.78;;;5.86;52.58
21361;BME280;10839;43.206;23.550;2023-03-14T04:03:07;97140.06;;;5.67;53.40
21361;BME280;10839;43.206;23.550;2023-03-14T04:05:33;97137.75;;;5.72;53.67
21361;BME280;10839;43.206;23.550;2023-03-14T04:08:07;97142.44;;;5.86;52.57
21361;BME280;10839;43.206;23.550;2023-03-14T04:10:36;97138.41;;;5.74;52.50
21361;BME280;10839;43.206;23.550;2023-03-14T04:13:11;97127.56;;;5.75;52.17
21361;BME280;10839;43.206;23.550;2023-03-14T04:15:39;97130.41;;;5.82;52.29
21361;BME280;10839;43.206;23.550;2023-03-14T04:18:15;97123.38;;;5.49;52.86
21361;BME280;10839;43.206;23.550;2023-03-14T04:20:42;97114.00;;;5.61;52.68
21361;BME280;10839;43.206;23.550;2023-03-14T04:23:10;97117.69;;;5.68;51.85
21361;BME280;10839;43.206;23.550;2023-03-14T04:25:36;97113.69;;;5.56;52.03
21361;BME280;10839;43.206;23.550;2023-03-14T04:28:04;97108.91;;;5.83;50.99
21361;BME280;10839;43.206;23.550;2023-03-14T04:30:31;97104.41;;;5.92;50.70
21361;BME280;10839;43.206;23.550;2023-03-14T04:33:00;97102.22;;;5.87;50.45
21361;BME280;10839;43.206;23.550;2023-03-14T04:35:30;97106.41;;;5.90;51.33
21361;BME280;10839;43.206;23.550;2023-03-14T04:38:00;97107.06;;;6.00;50.77
21361;BME280;10839;43.206;23.550;2023-03-14T04:40:26;97109.41;;;6.27;50.08
21361;BME280;10839;43.206;23.550;2023-03-14T04:42:58;97112.22;;;6.33;50.37
21361;BME280;10839;43.206;23.550;2023-03-14T04:45:24;97109.88;;;6.14;50.87
21361;BME280;10839;43.206;23.550;2023-03-14T04:47:50;97105.75;;;6.12;50.08
21361;BME280;10839;43.206;23.550;2023-03-14T04:50:18;97104.06;;;5.95;50.25
21361;BME280;10839;43.206;23.550;2023-03-14T04:52:45;97092.03;;;5.91;50.81
21361;BME280;10839;43.206;23.550;2023-03-14T04:55:11;97091.00;;;6.24;49.91
21361;BME280;10839;43.206;23.550;2023-03-14T04:57:37;97082.25;;;7.31;47.65
21361;BME280;10839;43.206;23.550;2023-03-14T05:00:07;97078.13;;;8.92;44.40
21361;BME280;10839;43.206;23.550;2023-03-14T05:02:49;97082.72;;;9.27;42.90
21361;BME280;10839;43.206;23.550;2023-03-14T05:05:19;97081.78;;;9.20;43.40
21361;BME280;10839;43.206;23.550;2023-03-14T05:08:01;97094.28;;;11.16;40.37
21361;BME280;10839;43.206;23.550;2023-03-14T05:10:36;97096.66;;;11.92;37.31
21361;BME280;10839;43.206;23.550;2023-03-14T05:13:28;97096.94;;;11.63;37.43
21361;BME280;10839;43.206;23.550;2023-03-14T05:16:23;97098.63;;;13.40;34.87
21361;BME280;10839;43.206;23.550;2023-03-14T05:19:08;97094.44;;;13.44;34.31
21361;BME280;10839;43.206;23.550;2023-03-14T05:21:44;97086.72;;;11.99;36.34
21361;BME280;10839;43.206;23.550;2023-03-14T05:24:10;97085.44;;;14.99;32.25
21361;BME280;10839;43.206;23.550;2023-03-14T05:26:51;97077.31;;;15.90;31.05
21361;BME280;10839;43.206;23.550;2023-03-14T05:29:30;97077.78;;;15.14;31.23
21361;BME280;10839;43.206;23.550;2023-03-14T05:32:25;97074.69;;;15.29;32.01
21361;BME280;10839;43.206;23.550;2023-03-14T05:35:20;97089.00;;;14.26;32.23
21361;BME280;10839;43.206;23.550;2023-03-14T05:37:58;97091.19;;;15.82;31.29
21361;BME280;10839;43.206;23.550;2023-03-14T05:40:59;97092.78;;;16.42;30.02
21361;BME280;10839;43.206;23.550;2023-03-14T05:43:39;97089.22;;;17.92;29.18
21361;BME280;10839;43.206;23.550;2023-03-14T05:46:32;97092.31;;;17.83;28.13
21361;BME280;10839;43.206;23.550;2023-03-14T05:49:21;97106.88;;;18.17;28.58
21361;BME280;10839;43.206;23.550;2023-03-14T05:51:56;97100.91;;;20.34;26.17
21361;BME280;10839;43.206;23.550;2023-03-14T05:54:41;97105.84;;;21.27;24.54
21361;BME280;10839;43.206;23.550;2023-03-14T05:57:27;97102.53;;;21.67;23.75
21361;BME280;10839;43.206;23.550;2023-03-14T06:00:11;97103.72;;;22.72;23.61
21361;BME280;10839;43.206;23.550;2023-03-14T06:02:48;97097.72;;;23.31;22.58
21361;BME280;10839;43.206;23.550;2023-03-14T06:05:21;97104.88;;;22.00;23.04
21361;BME280;10839;43.206;23.550;2023-03-14T06:07:49;97094.28;;;20.57;25.45
21361;BME280;10839;43.206;23.550;2023-03-14T06:10:15;97107.09;;;20.24;27.02
21361;BME280;10839;43.206;23.550;2023-03-14T06:12:41;97109.13;;;20.92;26.59
21361;BME280;10839;43.206;23.550;2023-03-14T06:15:07;97119.38;;;21.85;26.01
21361;BME280;10839;43.206;23.550;2023-03-14T06:17:34;97118.56;;;21.95;25.90
21361;BME280;10839;43.206;23.550;2023-03-14T06:20:08;97122.66;;;22.54;25.71
21361;BME280;10839;43.206;23.550;2023-03-14T06:22:35;97127.25;;;22.48;25.61
21361;BME280;10839;43.206;23.550;2023-03-14T06:25:01;97119.66;;;23.16;24.61
21361;BME280;10839;43.206;23.550;2023-03-14T06:27:27;97134.53;;;23.35;24.78
21361;BME280;10839;43.206;23.550;2023-03-14T06:29:55;97127.94;;;23.11;24.97
21361;BME280;10839;43.206;23.550;2023-03-14T06:32:21;97130.31;;;23.82;24.15
21361;BME280;10839;43.206;23.550;2023-03-14T06:34:50;97118.03;;;23.35;24.66
21361;BME280;10839;43.206;23.550;2023-03-14T06:37:16;97121.03;;;22.93;25.46
21361;BME280;10839;43.206;23.550;2023-03-14T06:39:45;97108.69;;;22.75;25.76
21361;BME280;10839;43.206;23.550;2023-03-14T06:42:20;97105.94;;;23.21;25.36
21361;BME280;10839;43.206;23.550;2023-03-14T06:44:47;97098.25;;;22.72;25.56
21361;BME280;10839;43.206;23.550;2023-03-14T06:47:13;97105.38;;;23.64;24.36
21361;BME280;10839;43.206;23.550;2023-03-14T06:49:42;97103.16;;;23.56;24.50
21361;BME280;10839;43.206;23.550;2023-03-14T06:52:08;97107.31;;;22.78;25.28
21361;BME280;10839;43.206;23.550;2023-03-14T06:54:34;97097.72;;;23.11;24.88
21361;BME280;10839;43.206;23.550;2023-03-14T06:57:00;97105.41;;;22.94;25.03
21361;BME280;10839;43.206;23.550;2023-03-14T06:59:26;97101.53;;;22.64;25.35
21361;BME280;10839;43.206;23.550;2023-03-14T07:01:53;97097.16;;;23.49;24.57
21361;BME280;10839;43.206;23.550;2023-03-14T07:04:19;97089.47;;;23.21;24.54
21361;BME280;10839;43.206;23.550;2023-03-14T07:06:47;97093.28;;;23.60;24.36
21361;BME280;10839;43.206;23.550;2023-03-14T07:09:14;97084.69;;;23.81;24.11
21361;BME280;10839;43.206;23.550;2023-03-14T07:11:49;97078.34;;;23.81;24.00
21361;BME280;10839;43.206;23.550;2023-03-14T07:14:16;97076.28;;;23.43;24.41
21361;BME280;10839;43.206;23.550;2023-03-14T07:16:42;97076.84;;;22.69;25.23
21361;BME280;10839;43.206;23.550;2023-03-14T07:19:08;97075.75;;;22.65;24.85
21361;BME280;10839;43.206;23.550;2023-03-14T07:21:35;97076.56;;;22.91;24.81
21361;BME280;10839;43.206;23.550;2023-03-14T07:24:07;97071.19;;;23.90;24.00
21361;BME280;10839;43.206;23.550;2023-03-14T07:26:33;97064.06;;;24.43;23.61
21361;BME280;10839;43.206;23.550;2023-03-14T07:28:59;97059.50;;;24.23;22.86
21361;BME280;10839;43.206;23.550;2023-03-14T07:31:26;97041.00;;;24.39;23.14
21361;BME280;10839;43.206;23.550;2023-03-14T07:33:52;97039.50;;;24.51;22.85
21361;BME280;10839;43.206;23.550;2023-03-14T07:36:20;97048.03;;;24.06;23.21
21361;BME280;10839;43.206;23.550;2023-03-14T07:38:46;97041.38;;;24.99;22.39
21361;BME280;10839;43.206;23.550;2023-03-14T07:41:32;97029.22;;;24.28;22.53
21361;BME280;10839;43.206;23.550;2023-03-14T07:44:17;97036.94;;;25.03;22.56
21361;BME280;10839;43.206;23.550;2023-03-14T07:46:43;97031.44;;;25.03;22.63
21361;BME280;10839;43.206;23.550;2023-03-14T07:49:09;97035.66;;;25.19;22.01
21361;BME280;10839;43.206;23.550;2023-03-14T07:51:34;97030.53;;;25.42;21.92
21361;BME280;10839;43.206;23.550;2023-03-14T07:54:00;97027.53;;;25.38;21.49
21361;BME280;10839;43.206;23.550;2023-03-14T07:56:26;97030.34;;;24.99;22.12
21361;BME280;10839;43.206;23.550;2023-03-14T07:58:52;97029.31;;;24.90;21.66
21361;BME280;10839;43.206;23.550;2023-03-14T08:01:18;97028.63;;;24.75;21.60
21361;BME280;10839;43.206;23.550;2023-03-14T08:03:43;97026.97;;;25.07;21.61
21361;BME280;10839;43.206;23.550;2023-03-14T08:06:09;97030.69;;;25.21;21.05
21361;BME280;10839;43.206;23.550;2023-03-14T08:08:35;97028.44;;;24.61;21.86
21361;BME280;10839;43.206;23.550;2023-03-14T08:11:05;97035.03;;;24.65;21.95
21361;BME280;10839;43.206;23.550;2023-03-14T08:13:31;97035.31;;;24.25;21.90
21361;BME280;10839;43.206;23.550;2023-03-14T08:15:57;97036.00;;;24.41;22.08
21361;BME280;10839;43.206;23.550;2023-03-14T08:18:23;97035.16;;;24.45;22.03
21361;BME280;10839;43.206;23.550;2023-03-14T08:20:49;97024.94;;;23.38;23.49
21361;BME280;10839;43.206;23.550;2023-03-14T08:23:15;97022.22;;;24.07;23.24
21361;BME280;10839;43.206;23.550;2023-03-14T08:25:41;97021.31;;;24.17;22.99
21361;BME280;10839;43.206;23.550;2023-03-14T08:28:06;97024.25;;;23.76;22.99
21361;BME280;10839;43.206;23.550;2023-03-14T08:30:33;97017.44;;;23.64;23.31
21361;BME280;10839;43.206;23.550;2023-03-14T08:32:58;97014.78;;;23.19;23.35
21361;BME280;10839;43.206;23.550;2023-03-14T08:35:26;97017.03;;;22.97;23.79
21361;BME280;10839;43.206;23.550;2023-03-14T08:37:52;97012.50;;;23.51;23.56
21361;BME280;10839;43.206;23.550;2023-03-14T08:40:18;97006.03;;;23.07;24.29
21361;BME280;10839;43.206;23.550;2023-03-14T08:42:45;97010.59;;;23.51;24.40
21361;BME280;10839;43.206;23.550;2023-03-14T08:45:13;97006.66;;;23.72;24.60
21361;BME280;10839;43.206;23.550;2023-03-14T08:47:39;97014.53;;;23.99;23.59
21361;BME280;10839;43.206;23.550;2023-03-14T08:50:06;97006.97;;;23.61;24.46
21361;BME280;10839;43.206;23.550;2023-03-14T08:52:32;97009.66;;;23.76;23.65
21361;BME280;10839;43.206;23.550;2023-03-14T08:54:58;97004.81;;;23.53;23.90
21361;BME280;10839;43.206;23.550;2023-03-14T08:57:25;97002.72;;;22.34;24.94
21361;BME280;10839;43.206;23.550;2023-03-14T08:59:54;97009.31;;;22.38;24.90
21361;BME280;10839;43.206;23.550;2023-03-14T09:02:21;96999.47;;;22.37;25.23
21361;BME280;10839;43.206;23.550;2023-03-14T09:04:47;96993.47;;;22.55;24.96
21361;BME280;10839;43.206;23.550;2023-03-14T09:07:12;96993.19;;;22.62;24.59
21361;BME280;10839;43.206;23.550;2023-03-14T09:09:39;96975.34;;;22.69;24.38
21361;BME280;10839;43.206;23.550;2023-03-14T09:12:05;96983.47;;;21.99;24.90
21361;BME280;10839;43.206;23.550;2023-03-14T09:14:31;96991.78;;;22.54;25.05
21361;BME280;10839;43.206;23.550;2023-03-14T09:16:57;96981.59;;;22.20;24.91
21361;BME280;10839;43.206;23.550;2023-03-14T09:19:23;96966.28;;;22.79;24.47
21361;BME280;10839;43.206;23.550;2023-03-14T09:21:49;96964.25;;;23.25;24.39
21361;BME280;10839;43.206;23.550;2023-03-14T09:24:16;96957.78;;;22.81;24.65
21361;BME280;10839;43.206;23.550;2023-03-14T09:26:42;96952.66;;;23.48;24.53
21361;BME280;10839;43.206;23.550;2023-03-14T09:29:09;96951.19;;;22.76;24.46
21361;BME280;10839;43.206;23.550;2023-03-14T09:31:35;96935.16;;;21.63;25.33
21361;BME280;10839;43.206;23.550;2023-03-14T09:34:01;96930.63;;;22.74;24.61
21361;BME280;10839;43.206;23.550;2023-03-14T09:36:27;96927.59;;;22.15;24.95
21361;BME280;10839;43.206;23.550;2023-03-14T09:38:53;96923.47;;;22.33;24.60
21361;BME280;10839;43.206;23.550;2023-03-14T09:43:50;96909.16;;;23.65;24.15
21361;BME280;10839;43.206;23.550;2023-03-14T09:46:21;96897.72;;;23.91;23.31
21361;BME280;10839;43.206;23.550;2023-03-14T09:48:47;96888.38;;;22.65;24.50
21361;BME280;10839;43.206;23.550;2023-03-14T09:51:16;96892.97;;;21.59;25.17
21361;BME280;10839;43.206;23.550;2023-03-14T09:53:45;96889.78;;;22.12;24.97
21361;BME280;10839;43.206;23.550;2023-03-14T09:56:18;96889.56;;;23.28;24.12
21361;BME280;10839;43.206;23.550;2023-03-14T09:58:50;96887.03;;;23.41;23.56
21361;BME280;10839;43.206;23.550;2023-03-14T10:01:22;96887.34;;;23.25;23.83
21361;BME280;10839;43.206;23.550;2023-03-14T10:03:48;96888.00;;;23.02;24.22
21361;BME280;10839;43.206;23.550;2023-03-14T10:06:16;96888.66;;;22.63;24.88
21361;BME280;10839;43.206;23.550;2023-03-14T10:08:43;96885.28;;;22.97;24.40
21361;BME280;10839;43.206;23.550;2023-03-14T10:11:16;96878.25;;;22.55;24.88
21361;BME280;10839;43.206;23.550;2023-03-14T10:16:35;96853.41;;;23.06;24.24
21361;BME280;10839;43.206;23.550;2023-03-14T10:19:09;96853.03;;;22.28;25.04
21361;BME280;10839;43.206;23.550;2023-03-14T10:21:50;96845.94;;;21.82;25.97
21361;BME280;10839;43.206;23.550;2023-03-14T10:29:29;96821.78;;;22.04;25.93
21361;BME280;10839;43.206;23.550;2023-03-14T10:32:01;96817.38;;;22.28;25.66
21361;BME280;10839;43.206;23.550;2023-03-14T10:34:37;96813.78;;;22.43;25.80
21361;BME280;10839;43.206;23.550;2023-03-14T10:37:16;96813.47;;;22.69;25.55
21361;BME280;10839;43.206;23.550;2023-03-14T10:39:52;96801.84;;;22.93;25.59
21361;BME280;10839;43.206;23.550;2023-03-14T10:42:28;96797.41;;;23.02;25.77
21361;BME280;10839;43.206;23.550;2023-03-14T10:45:10;96793.31;;;22.00;26.39
21361;BME280;10839;43.206;23.550;2023-03-14T10:47:49;96788.06;;;21.43;26.86
21361;BME280;10839;43.206;23.550;2023-03-14T10:50:27;96780.59;;;20.99;27.50
21361;BME280;10839;43.206;23.550;2023-03-14T10:52:55;96782.16;;;20.90;28.21
21361;BME280;10839;43.206;23.550;2023-03-14T10:55:24;96772.72;;;20.51;28.44
21361;BME280;10839;43.206;23.550;2023-03-14T10:57:51;96774.59;;;21.17;28.01
21361;BME280;10839;43.206;23.550;2023-03-14T11:00:22;96770.03;;;21.68;27.37
21361;BME280;10839;43.206;23.550;2023-03-14T11:05:51;96755.47;;;22.07;27.68
21361;BME280;10839;43.206;23.550;2023-03-14T11:11:25;96747.03;;;21.79;27.88
21361;BME280;10839;43.206;23.550;2023-03-14T11:14:27;96738.50;;;21.70;28.05
21361;BME280;10839;43.206;23.550;2023-03-14T11:17:12;96725.66;;;21.61;28.23
21361;BME280;10839;43.206;23.550;2023-03-14T11:22:46;96712.97;;;22.10;28.43
21361;BME280;10839;43.206;23.550;2023-03-14T11:25:36;96715.91;;;22.38;27.78
21361;BME280;10839;43.206;23.550;2023-03-14T11:36:46;96685.41;;;21.31;29.06
21361;BME280;10839;43.206;23.550;2023-03-14T11:39:16;96675.97;;;22.12;28.42
21361;BME280;10839;43.206;23.550;2023-03-14T11:41:46;96671.38;;;21.83;28.51
21361;BME280;10839;43.206;23.550;2023-03-14T11:44:18;96670.16;;;22.29;28.08
21361;BME280;10839;43.206;23.550;2023-03-14T11:52:13;96662.78;;;22.14;28.44
21361;BME280;10839;43.206;23.550;2023-03-14T11:57:19;96647.59;;;21.38;28.63
21361;BME280;10839;43.206;23.550;2023-03-14T11:59:52;96640.25;;;21.13;28.98
21361;BME280;10839;43.206;23.550;2023-03-14T12:13:10;96623.25;;;21.36;29.18
21361;BME280;10839;43.206;23.550;2023-03-14T12:15:46;96607.41;;;21.03;29.86
21361;BME280;10839;43.206;23.550;2023-03-14T12:18:33;96603.81;;;21.28;29.68
21361;BME280;10839;43.206;23.550;2023-03-14T12:21:01;96591.25;;;21.17;29.85
21361;BME280;10839;43.206;23.550;2023-03-14T12:23:34;96592.25;;;21.66;29.70
21361;BME280;10839;43.206;23.550;2023-03-14T12:26:15;96591.25;;;21.17;30.74
21361;BME280;10839;43.206;23.550;2023-03-14T12:29:09;96585.75;;;20.87;31.44
21361;BME280;10839;43.206;23.550;2023-03-14T12:31:36;96586.31;;;20.64;31.27
21361;BME280;10839;43.206;23.550;2023-03-14T12:47:54;96563.88;;;20.57;32.07
21361;BME280;10839;43.206;23.550;2023-03-14T12:50:44;96552.38;;;20.60;31.63
21361;BME280;10839;43.206;23.550;2023-03-14T12:56:02;96540.34;;;20.51;31.57
21361;BME280;10839;43.206;23.550;2023-03-14T12:58:34;96538.69;;;20.34;32.11
21361;BME280;10839;43.206;23.550;2023-03-14T13:01:05;96544.16;;;20.19;32.38
21361;BME280;10839;43.206;23.550;2023-03-14T13:04:02;96530.25;;;20.36;32.17
21361;BME280;10839;43.206;23.550;2023-03-14T13:06:49;96531.56;;;20.18;33.15
21361;BME280;10839;43.206;23.550;2023-03-14T13:09:50;96527.16;;;20.12;32.85
21361;BME280;10839;43.206;23.550;2023-03-14T13:12:19;96520.78;;;19.87;33.48
21361;BME280;10839;43.206;23.550;2023-03-14T13:14:50;96516.69;;;19.74;33.63
21361;BME280;10839;43.206;23.550;2023-03-14T13:17:27;96512.47;;;20.39;33.07
21361;BME280;10839;43.206;23.550;2023-03-14T13:19:57;96501.53;;;20.49;32.95
21361;BME280;10839;43.206;23.550;2023-03-14T13:22:28;96499.91;;;20.48;32.72
21361;BME280;10839;43.206;23.550;2023-03-14T13:25:07;96489.22;;;20.21;33.17
21361;BME280;10839;43.206;23.550;2023-03-14T13:27:36;96480.22;;;20.20;33.38
21361;BME280;10839;43.206;23.550;2023-03-14T13:30:16;96485.69;;;20.25;33.23
21361;BME280;10839;43.206;23.550;2023-03-14T13:32:43;96475.25;;;20.02;33.82
21361;BME280;10839;43.206;23.550;2023-03-14T13:35:19;96479.38;;;20.35;33.34
21361;BME280;10839;43.206;23.550;2023-03-14T13:37:45;96475.28;;;20.22;33.66
21361;BME280;10839;43.206;23.550;2023-03-14T13:40:19;96461.56;;;20.02;34.05
21361;BME280;10839;43.206;23.550;2023-03-14T13:42:45;96458.31;;;20.10;33.96
21361;BME280;10839;43.206;23.550;2023-03-14T13:45:13;96455.56;;;20.00;34.03
21361;BME280;10839;43.206;23.550;2023-03-14T13:47:39;96445.72;;;19.79;34.41
21361;BME280;10839;43.206;23.550;2023-03-14T13:50:15;96442.47;;;20.12;34.22
21361;BME280;10839;43.206;23.550;2023-03-14T13:52:41;96440.22;;;19.74;33.94
21361;BME280;10839;43.206;23.550;2023-03-14T13:55:18;96438.03;;;19.86;33.96
21361;BME280;10839;43.206;23.550;2023-03-14T13:57:46;96432.66;;;20.21;33.82
21361;BME280;10839;43.206;23.550;2023-03-14T14:00:22;96420.31;;;19.79;34.20
21361;BME280;10839;43.206;23.550;2023-03-14T14:02:57;96418.34;;;19.54;34.43
21361;BME280;10839;43.206;23.550;2023-03-14T14:05:27;96407.72;;;19.63;33.92
21361;BME280;10839;43.206;23.550;2023-03-14T14:07:53;96408.56;;;19.93;34.14
21361;BME280;10839;43.206;23.550;2023-03-14T14:10:20;96397.06;;;19.76;34.47
21361;BME280;10839;43.206;23.550;2023-03-14T14:12:50;96406.25;;;19.30;34.83
21361;BME280;10839;43.206;23.550;2023-03-14T14:15:22;96393.38;;;19.26;35.27
21361;BME280;10839;43.206;23.550;2023-03-14T14:20:32;96375.09;;;19.21;35.88
21361;BME280;10839;43.206;23.550;2023-03-14T14:23:05;96377.81;;;19.16;35.45
21361;BME280;10839;43.206;23.550;2023-03-14T14:25:32;96371.22;;;19.02;35.66